createdAt,value
2023-03-19T00:02:29.148Z,100586.47
2023-03-19T00:07:30.899Z,100583.03
2023-03-19T00:12:32.526Z,100587.91
2023-03-19T00:17:34.052Z,100589.53
2023-03-19T00:22:35.619Z,100587.06
2023-03-19T00:27:38.219Z,100584.03
2023-03-19T00:32:40.380Z,100591.03
2023-03-19T00:37:42.092Z,100580.31
2023-03-19T00:42:43.793Z,100578.56
2023-03-19T00:47:45.334Z,100583.00
2023-03-19T00:52:48.176Z,100589.03
2023-03-19T00:57:49.758Z,100584.75
2023-03-19T01:02:51.348Z,100572.19
2023-03-19T01:07:53.217Z,100582.03
2023-03-19T01:12:54.881Z,100585.16
2023-03-19T01:17:56.395Z,100575.41
2023-03-19T01:22:58.062Z,100576.50
2023-03-19T01:27:59.817Z,100585.81
2023-03-19T01:33:02.126Z,100574.50
2023-03-19T01:38:14.732Z,100593.13
2023-03-19T01:43:21.317Z,100586.22
2023-03-19T01:48:40.854Z,100576.88
2023-03-19T01:53:53.873Z,100580.84
2023-03-19T01:59:30.628Z,100574.84
2023-03-19T02:04:37.783Z,100574.28
2023-03-19T02:09:41.517Z,100574.13
2023-03-19T02:14:43.257Z,100573.16
2023-03-19T02:20:23.921Z,100582.47
2023-03-19T02:25:32.750Z,100574.97
2023-03-19T02:30:35.389Z,100582.16
2023-03-19T02:35:42.710Z,100577.16
2023-03-19T02:40:49.036Z,100570.75
2023-03-19T02:45:50.950Z,100568.19
2023-03-19T02:50:52.707Z,100570.28
2023-03-19T02:55:54.211Z,100579.78
2023-03-19T03:00:55.813Z,100579.78
2023-03-19T03:05:57.370Z,100570.28
2023-03-19T03:10:59.014Z,100575.19
2023-03-19T03:16:00.666Z,100585.69
2023-03-19T03:21:03.350Z,100573.75
2023-03-19T03:26:04.961Z,100589.22
2023-03-19T03:31:07.142Z,100592.13
2023-03-19T03:36:08.768Z,100585.41
2023-03-19T03:41:10.277Z,100590.75
2023-03-19T03:46:11.991Z,100597.69
2023-03-19T03:51:13.543Z,100597.06
2023-03-19T03:56:15.114Z,100604.72
2023-03-19T04:01:17.725Z,100602.28
2023-03-19T04:06:24.475Z,100614.31
2023-03-19T04:11:42.122Z,100607.28
2023-03-19T04:16:43.768Z,100614.44
2023-03-19T04:21:46.050Z,100620.16
2023-03-19T04:26:47.601Z,100623.28
2023-03-19T04:31:50.183Z,100618.69
2023-03-19T04:36:51.883Z,100627.09
2023-03-19T04:41:53.611Z,100622.50
2023-03-19T04:47:05.409Z,100616.94
2023-03-19T04:52:19.261Z,100626.19
2023-03-19T04:57:21.125Z,100627.22
2023-03-19T05:02:25.772Z,100635.66
2023-03-19T05:07:28.913Z,100644.88
2023-03-19T05:12:33.892Z,100640.69
2023-03-19T05:17:35.568Z,100651.81
2023-03-19T05:23:04.106Z,100647.38
2023-03-19T05:28:13.569Z,100654.88
2023-03-19T05:33:16.623Z,100658.00
2023-03-19T05:38:20.050Z,100663.13
2023-03-19T05:43:29.246Z,100671.59
2023-03-19T05:48:31.706Z,100663.63
2023-03-19T05:53:38.628Z,100673.75
2023-03-19T05:59:00.438Z,100671.00
2023-03-19T06:04:09.737Z,100683.91
2023-03-19T06:09:11.725Z,100691.53
2023-03-19T06:14:16.487Z,100692.44
2023-03-19T06:19:29.073Z,100689.09
2023-03-19T06:24:30.800Z,100697.25
2023-03-19T06:29:32.483Z,100700.63
2023-03-19T06:34:46.094Z,100703.44
2023-03-19T06:39:47.915Z,100708.56
2023-03-19T06:44:52.331Z,100713.06
2023-03-19T06:49:54.996Z,100717.75
2023-03-19T06:54:56.504Z,100721.56
2023-03-19T06:59:58.037Z,100725.84
2023-03-19T07:04:59.547Z,100733.44
2023-03-19T07:10:01.243Z,100738.53
2023-03-19T07:15:03.335Z,100749.31
2023-03-19T07:20:05.586Z,100753.09
2023-03-19T07:25:07.737Z,100755.03
2023-03-19T07:30:09.878Z,100752.81
2023-03-19T07:35:11.692Z,100754.81
2023-03-19T07:40:13.354Z,100765.75
2023-03-19T07:45:14.929Z,100769.84
2023-03-19T07:50:16.478Z,100767.84
2023-03-19T07:55:18.137Z,100756.69
2023-03-19T08:00:19.791Z,100758.09
2023-03-19T08:05:21.387Z,100762.22
2023-03-19T08:10:23.134Z,100763.63
2023-03-19T08:15:24.696Z,100760.75
2023-03-19T08:20:26.406Z,100766.38
2023-03-19T08:25:27.973Z,100764.81
2023-03-19T08:30:29.975Z,100767.97
2023-03-19T08:35:31.607Z,100774.22
2023-03-19T08:40:33.635Z,100786.13
2023-03-19T08:45:35.327Z,100795.00
2023-03-19T08:50:37.014Z,100796.00
2023-03-19T08:55:38.574Z,100802.84
2023-03-19T09:00:40.134Z,100802.91
2023-03-19T09:05:41.684Z,100803.69
2023-03-19T09:10:43.296Z,100809.09
2023-03-19T09:15:44.824Z,100811.00
2023-03-19T09:20:47.448Z,100818.72
2023-03-19T09:25:49.735Z,100822.28
2023-03-19T09:30:51.725Z,100816.66
2023-03-19T09:35:53.906Z,100821.97
2023-03-19T09:41:15.710Z,100823.69
2023-03-19T09:46:26.619Z,100835.28
2023-03-19T09:51:43.478Z,100824.03
2023-03-19T09:56:45.002Z,100833.81
2023-03-19T10:01:56.867Z,100837.25
2023-03-19T10:07:35.743Z,100836.88
2023-03-19T10:13:09.364Z,100842.56
2023-03-19T10:18:25.242Z,100839.41
2023-03-19T10:23:41.669Z,100840.59
2023-03-19T10:28:45.525Z,100845.66
2023-03-19T10:33:49.884Z,100844.41
2023-03-19T10:38:51.401Z,100837.25
2023-03-19T10:43:58.593Z,100844.78
2023-03-19T10:49:00.131Z,100843.16
2023-03-19T10:54:01.694Z,100851.53
2023-03-19T10:59:06.344Z,100845.94
2023-03-19T11:04:18.493Z,100853.34
2023-03-19T11:09:39.462Z,100849.66
2023-03-19T11:14:42.498Z,100854.53
2023-03-19T11:19:53.737Z,100860.31
2023-03-19T11:25:03.682Z,100856.06
2023-03-19T11:30:17.034Z,100846.53
2023-03-19T11:35:25.477Z,100840.56
2023-03-19T11:40:50.746Z,100843.84
2023-03-19T11:46:07.255Z,100843.47
2023-03-19T11:51:11.752Z,100837.16
2023-03-19T11:56:19.185Z,100829.31
2023-03-19T12:01:29.605Z,100840.34
2023-03-19T12:06:48.812Z,100835.34
2023-03-19T12:12:12.271Z,100834.16
2023-03-19T12:17:19.716Z,100834.97
2023-03-19T12:22:41.380Z,100829.88
2023-03-19T12:27:51.919Z,100824.03
2023-03-19T12:32:59.041Z,100829.25
2023-03-19T12:38:13.128Z,100827.56
2023-03-19T12:43:26.583Z,100821.19
2023-03-19T12:48:35.647Z,100822.81
2023-03-19T12:53:49.570Z,100821.88
2023-03-19T12:59:13.957Z,100822.69
2023-03-19T13:04:33.694Z,100822.03
2023-03-19T13:09:49.077Z,100820.03
2023-03-19T13:15:09.456Z,100818.94
2023-03-19T13:20:28.810Z,100827.06
2023-03-19T13:25:46.448Z,100813.13
2023-03-19T13:31:07.224Z,100819.06
2023-03-19T13:36:14.156Z,100819.69
2023-03-19T13:41:37.535Z,100820.34
2023-03-19T13:46:41.693Z,100816.38
2023-03-19T13:51:43.663Z,100816.47
2023-03-19T13:57:00.377Z,100806.84
2023-03-19T14:02:23.789Z,100808.88
2023-03-19T14:07:30.035Z,100811.53
2023-03-19T14:12:34.869Z,100818.91
2023-03-19T14:17:44.984Z,100815.78
2023-03-19T14:23:08.968Z,100811.22
2023-03-19T14:28:11.124Z,100810.34
2023-03-19T14:33:22.112Z,100820.63
2023-03-19T14:38:32.675Z,100817.53
2023-03-19T14:44:01.432Z,100814.22
2023-03-19T14:49:44.881Z,100813.19
2023-03-19T14:54:59.534Z,100818.91
2023-03-19T15:00:02.428Z,100828.78
2023-03-19T15:05:10.805Z,100832.22
2023-03-19T15:10:17.748Z,100831.53
2023-03-19T15:21:49.263Z,100829.66
2023-03-19T15:26:50.968Z,100826.66
2023-03-19T15:32:04.426Z,100833.53
2023-03-19T15:37:12.543Z,100838.47
2023-03-19T15:42:16.461Z,100838.56
2023-03-19T15:47:24.556Z,100836.72
2023-03-19T15:52:26.593Z,100844.94
2023-03-19T15:57:29.176Z,100858.97
2023-03-19T16:02:33.380Z,100853.16
2023-03-19T16:08:02.750Z,100855.53
2023-03-19T16:13:21.484Z,100872.97
2023-03-19T16:18:24.762Z,100887.78
2023-03-19T16:23:41.016Z,100890.81
2023-03-19T16:28:58.069Z,100905.13
2023-03-19T16:34:00.522Z,100911.81
2023-03-19T16:39:26.120Z,100915.06
2023-03-19T16:44:31.000Z,100914.69
2023-03-19T16:49:33.001Z,100925.44
2023-03-19T16:54:34.611Z,100925.03
2023-03-19T16:59:36.471Z,100925.25
2023-03-19T17:04:38.166Z,100939.66
2023-03-19T17:09:39.961Z,100942.47
2023-03-19T17:14:45.252Z,100940.84
2023-03-19T17:19:47.533Z,100939.22
2023-03-19T17:24:49.114Z,100942.16
2023-03-19T17:29:50.698Z,100964.53
2023-03-19T17:34:52.184Z,100970.66
2023-03-19T17:39:53.670Z,100980.91
2023-03-19T17:44:55.242Z,100991.50
2023-03-19T17:49:57.114Z,100996.66
2023-03-19T17:54:58.651Z,100999.22
2023-03-19T18:00:00.216Z,101001.53
2023-03-19T18:05:01.794Z,101017.94
2023-03-19T18:10:03.465Z,101018.94
2023-03-19T18:15:05.655Z,101019.19
2023-03-19T18:20:10.855Z,101026.94
2023-03-19T18:25:21.336Z,101033.88
2023-03-19T18:30:23.597Z,101027.81
2023-03-19T18:35:31.325Z,101034.06
2023-03-19T18:40:34.071Z,101050.28
2023-03-19T18:45:36.120Z,101051.88
2023-03-19T18:50:37.715Z,101054.28
2023-03-19T18:55:39.904Z,101063.16
2023-03-19T19:00:41.554Z,101063.94
2023-03-19T19:05:43.683Z,101073.84
2023-03-19T19:10:58.837Z,101074.63
2023-03-19T19:16:00.362Z,101076.38
2023-03-19T19:21:02.126Z,101079.13
2023-03-19T19:26:03.851Z,101082.72
2023-03-19T19:31:05.811Z,101081.44
2023-03-19T19:36:07.824Z,101087.09
2023-03-19T19:41:14.874Z,101100.81
2023-03-19T19:46:18.990Z,101104.72
2023-03-19T19:51:22.886Z,101109.53
2023-03-19T19:56:25.648Z,101121.75
2023-03-19T20:01:27.296Z,101129.47
2023-03-19T20:06:28.874Z,101133.63
2023-03-19T20:11:30.981Z,101139.19
2023-03-19T20:16:32.498Z,101148.63
2023-03-19T20:21:34.034Z,101156.09
2023-03-19T20:26:35.561Z,101161.19
2023-03-19T20:31:37.184Z,101165.47
2023-03-19T20:36:38.681Z,101176.91
2023-03-19T20:41:40.207Z,101185.22
2023-03-19T20:46:41.754Z,101190.09
2023-03-19T20:51:43.383Z,101189.78
2023-03-19T20:56:44.949Z,101196.31
2023-03-19T21:01:46.514Z,101201.25
2023-03-19T21:06:53.474Z,101204.50
2023-03-19T21:11:55.698Z,101208.25
2023-03-19T21:16:57.177Z,101208.09
2023-03-19T21:21:58.821Z,101215.16
2023-03-19T21:27:02.438Z,101225.88
2023-03-19T21:32:11.155Z,101219.09
2023-03-19T21:37:12.693Z,101220.66
2023-03-19T21:42:20.441Z,101224.09
2023-03-19T21:47:22.062Z,101227.72
2023-03-19T21:52:23.607Z,101231.22
2023-03-19T21:57:25.152Z,101231.13
2023-03-19T22:02:26.655Z,101235.28
2023-03-19T22:07:28.189Z,101231.22
2023-03-19T22:12:33.531Z,101234.31
2023-03-19T22:17:35.032Z,101234.88
2023-03-19T22:22:36.550Z,101247.13
2023-03-19T22:27:40.093Z,101250.84
2023-03-19T22:32:41.672Z,101265.31
2023-03-19T22:37:43.990Z,101270.91
2023-03-19T22:42:48.398Z,101269.19
2023-03-19T22:47:50.539Z,101263.88
2023-03-19T22:52:52.840Z,101281.66
2023-03-19T22:57:54.367Z,101283.03
2023-03-19T23:02:56.984Z,101278.09
2023-03-19T23:07:58.651Z,101272.19
2023-03-19T23:13:00.169Z,101274.53
2023-03-19T23:18:01.930Z,101268.34
2023-03-19T23:23:03.474Z,101277.69
2023-03-19T23:28:05.753Z,101289.81
2023-03-19T23:33:10.809Z,101300.81
2023-03-19T23:38:12.801Z,101307.41
2023-03-19T23:43:23.489Z,101311.75
2023-03-19T23:48:32.332Z,101314.47
2023-03-19T23:53:33.862Z,101315.03
2023-03-19T23:58:41.032Z,101318.38
